sensor_id;sensor_type;location;lat;lon;timestamp;P1;durP1;ratioP1;P2;durP2;ratioP2
24713;SDS011;12820;51.580;5.010;2023-03-23T00:00:17;6.43;;;3.22;;
24713;SDS011;12820;51.580;5.010;2023-03-23T00:05:19;10.02;;;3.40;;
24713;SDS011;12820;51.580;5.010;2023-03-23T00:10:20;5.97;;;3.50;;
24713;SDS011;12820;51.580;5.010;2023-03-23T00:15:21;8.80;;;3.42;;
24713;SDS011;12820;51.580;5.010;2023-03-23T00:20:26;8.35;;;3.60;;
24713;SDS011;12820;51.580;5.010;2023-03-23T00:25:30;9.52;;;3.83;;
24713;SDS011;12820;51.580;5.010;2023-03-23T00:30:31;10.65;;;3.80;;
24713;SDS011;12820;51.580;5.010;2023-03-23T00:35:34;10.10;;;4.53;;
24713;SDS011;12820;51.580;5.010;2023-03-23T00:40:38;5.90;;;3.58;;
24713;SDS011;12820;51.580;5.010;2023-03-23T00:45:39;9.32;;;4.18;;
24713;SDS011;12820;51.580;5.010;2023-03-23T00:50:40;9.20;;;4.15;;
24713;SDS011;12820;51.580;5.010;2023-03-23T00:55:41;8.35;;;4.28;;
24713;SDS011;12820;51.580;5.010;2023-03-23T01:00:43;7.10;;;3.92;;
24713;SDS011;12820;51.580;5.010;2023-03-23T01:05:44;8.13;;;4.32;;
24713;SDS011;12820;51.580;5.010;2023-03-23T01:10:52;9.60;;;4.32;;
24713;SDS011;12820;51.580;5.010;2023-03-23T01:16:03;9.70;;;4.85;;
24713;SDS011;12820;51.580;5.010;2023-03-23T01:21:05;8.02;;;4.55;;
24713;SDS011;12820;51.580;5.010;2023-03-23T01:26:12;10.07;;;4.43;;
24713;SDS011;12820;51.580;5.010;2023-03-23T01:31:16;7.63;;;4.28;;
24713;SDS011;12820;51.580;5.010;2023-03-23T01:36:28;9.57;;;4.13;;
24713;SDS011;12820;51.580;5.010;2023-03-23T01:41:37;8.13;;;4.13;;
24713;SDS011;12820;51.580;5.010;2023-03-23T01:46:46;6.57;;;4.60;;
24713;SDS011;12820;51.580;5.010;2023-03-23T01:51:54;9.55;;;4.07;;
24713;SDS011;12820;51.580;5.010;2023-03-23T01:56:59;8.77;;;4.68;;
24713;SDS011;12820;51.580;5.010;2023-03-23T02:02:03;6.40;;;4.32;;
24713;SDS011;12820;51.580;5.010;2023-03-23T02:07:05;7.78;;;3.90;;
24713;SDS011;12820;51.580;5.010;2023-03-23T02:12:06;13.52;;;4.30;;
24713;SDS011;12820;51.580;5.010;2023-03-23T02:17:17;7.95;;;4.15;;
24713;SDS011;12820;51.580;5.010;2023-03-23T02:22:39;8.50;;;4.28;;
24713;SDS011;12820;51.580;5.010;2023-03-23T02:27:50;10.63;;;4.13;;
24713;SDS011;12820;51.580;5.010;2023-03-23T02:38:35;10.18;;;4.13;;
24713;SDS011;12820;51.580;5.010;2023-03-23T02:43:43;7.40;;;2.90;;
24713;SDS011;12820;51.580;5.010;2023-03-23T02:48:46;8.43;;;3.72;;
24713;SDS011;12820;51.580;5.010;2023-03-23T02:53:52;7.75;;;3.72;;
24713;SDS011;12820;51.580;5.010;2023-03-23T02:58:55;8.65;;;3.30;;
24713;SDS011;12820;51.580;5.010;2023-03-23T03:03:58;7.97;;;3.38;;
24713;SDS011;12820;51.580;5.010;2023-03-23T03:09:04;7.35;;;2.83;;
24713;SDS011;12820;51.580;5.010;2023-03-23T03:14:08;8.13;;;3.53;;
24713;SDS011;12820;51.580;5.010;2023-03-23T03:24:45;6.28;;;3.33;;
24713;SDS011;12820;51.580;5.010;2023-03-23T03:29:49;9.68;;;3.80;;
24713;SDS011;12820;51.580;5.010;2023-03-23T03:34:55;7.25;;;3.10;;
24713;SDS011;12820;51.580;5.010;2023-03-23T03:39:57;6.65;;;2.85;;
24713;SDS011;12820;51.580;5.010;2023-03-23T03:44:58;7.53;;;2.78;;
24713;SDS011;12820;51.580;5.010;2023-03-23T03:49:59;8.43;;;3.05;;
24713;SDS011;12820;51.580;5.010;2023-03-23T03:55:01;8.35;;;2.65;;
24713;SDS011;12820;51.580;5.010;2023-03-23T04:00:05;7.63;;;2.55;;
24713;SDS011;12820;51.580;5.010;2023-03-23T04:05:20;8.68;;;2.58;;
24713;SDS011;12820;51.580;5.010;2023-03-23T04:10:23;8.70;;;2.30;;
24713;SDS011;12820;51.580;5.010;2023-03-23T04:15:30;12.25;;;2.45;;
24713;SDS011;12820;51.580;5.010;2023-03-23T04:20:31;5.93;;;1.83;;
24713;SDS011;12820;51.580;5.010;2023-03-23T04:25:33;8.50;;;2.03;;
24713;SDS011;12820;51.580;5.010;2023-03-23T04:30:34;8.25;;;1.70;;
24713;SDS011;12820;51.580;5.010;2023-03-23T04:35:42;9.75;;;1.95;;
24713;SDS011;12820;51.580;5.010;2023-03-23T04:41:09;9.38;;;2.40;;
24713;SDS011;12820;51.580;5.010;2023-03-23T04:46:25;10.95;;;1.92;;
24713;SDS011;12820;51.580;5.010;2023-03-23T04:51:31;5.80;;;1.92;;
24713;SDS011;12820;51.580;5.010;2023-03-23T04:56:43;9.85;;;1.70;;
24713;SDS011;12820;51.580;5.010;2023-03-23T05:01:48;9.02;;;1.80;;
24713;SDS011;12820;51.580;5.010;2023-03-23T05:06:52;7.28;;;1.60;;
24713;SDS011;12820;51.580;5.010;2023-03-23T05:12:03;7.55;;;1.80;;
24713;SDS011;12820;51.580;5.010;2023-03-23T05:17:14;9.32;;;2.50;;
24713;SDS011;12820;51.580;5.010;2023-03-23T05:22:19;8.00;;;1.60;;
24713;SDS011;12820;51.580;5.010;2023-03-23T05:27:24;6.90;;;1.75;;
24713;SDS011;12820;51.580;5.010;2023-03-23T05:32:32;7.35;;;1.50;;
24713;SDS011;12820;51.580;5.010;2023-03-23T05:37:52;7.25;;;1.77;;
24713;SDS011;12820;51.580;5.010;2023-03-23T05:42:56;7.45;;;1.95;;
24713;SDS011;12820;51.580;5.010;2023-03-23T05:48:08;9.85;;;1.75;;
24713;SDS011;12820;51.580;5.010;2023-03-23T05:53:10;9.23;;;2.20;;
24713;SDS011;12820;51.580;5.010;2023-03-23T05:58:13;9.35;;;2.17;;
24713;SDS011;12820;51.580;5.010;2023-03-23T06:03:18;9.75;;;2.05;;
24713;SDS011;12820;51.580;5.010;2023-03-23T06:08:30;6.85;;;1.90;;
24713;SDS011;12820;51.580;5.010;2023-03-23T06:13:32;10.25;;;2.33;;
24713;SDS011;12820;51.580;5.010;2023-03-23T06:18:39;10.55;;;1.95;;
24713;SDS011;12820;51.580;5.010;2023-03-23T06:24:07;13.80;;;2.53;;
24713;SDS011;12820;51.580;5.010;2023-03-23T06:29:08;10.15;;;2.50;;
24713;SDS011;12820;51.580;5.010;2023-03-23T06:34:27;14.15;;;2.42;;
24713;SDS011;12820;51.580;5.010;2023-03-23T06:39:47;11.32;;;2.20;;
24713;SDS011;12820;51.580;5.010;2023-03-23T06:45:15;9.98;;;3.00;;
24713;SDS011;12820;51.580;5.010;2023-03-23T06:50:19;9.25;;;2.60;;
24713;SDS011;12820;51.580;5.010;2023-03-23T06:55:20;12.57;;;2.60;;
24713;SDS011;12820;51.580;5.010;2023-03-23T07:00:22;12.10;;;2.70;;
24713;SDS011;12820;51.580;5.010;2023-03-23T07:05:24;13.73;;;2.50;;
24713;SDS011;12820;51.580;5.010;2023-03-23T07:10:26;11.27;;;2.65;;
24713;SDS011;12820;51.580;5.010;2023-03-23T07:15:28;12.20;;;2.58;;
24713;SDS011;12820;51.580;5.010;2023-03-23T07:20:31;12.52;;;2.25;;
24713;SDS011;12820;51.580;5.010;2023-03-23T07:25:33;5.75;;;1.55;;
24713;SDS011;12820;51.580;5.010;2023-03-23T07:30:37;7.18;;;1.67;;
24713;SDS011;12820;51.580;5.010;2023-03-23T07:35:38;6.68;;;1.50;;
24713;SDS011;12820;51.580;5.010;2023-03-23T07:40:46;6.97;;;1.73;;
24713;SDS011;12820;51.580;5.010;2023-03-23T07:45:52;6.28;;;1.60;;
24713;SDS011;12820;51.580;5.010;2023-03-23T07:50:55;7.13;;;1.50;;
24713;SDS011;12820;51.580;5.010;2023-03-23T07:55:57;6.47;;;1.60;;
24713;SDS011;12820;51.580;5.010;2023-03-23T08:01:27;7.00;;;1.88;;
24713;SDS011;12820;51.580;5.010;2023-03-23T08:06:47;7.22;;;1.40;;
24713;SDS011;12820;51.580;5.010;2023-03-23T08:12:10;5.18;;;1.13;;
24713;SDS011;12820;51.580;5.010;2023-03-23T08:17:30;5.28;;;1.17;;
24713;SDS011;12820;51.580;5.010;2023-03-23T08:22:53;5.57;;;1.45;;
24713;SDS011;12820;51.580;5.010;2023-03-23T08:28:14;4.57;;;1.20;;
24713;SDS011;12820;51.580;5.010;2023-03-23T08:33:34;6.57;;;1.40;;
24713;SDS011;12820;51.580;5.010;2023-03-23T08:38:58;5.40;;;1.35;;
24713;SDS011;12820;51.580;5.010;2023-03-23T08:44:26;6.80;;;1.80;;
24713;SDS011;12820;51.580;5.010;2023-03-23T08:49:50;11.88;;;1.70;;
24713;SDS011;12820;51.580;5.010;2023-03-23T08:55:12;4.88;;;1.25;;
24713;SDS011;12820;51.580;5.010;2023-03-23T09:00:31;4.93;;;1.20;;
24713;SDS011;12820;51.580;5.010;2023-03-23T09:06:00;8.25;;;1.65;;
24713;SDS011;12820;51.580;5.010;2023-03-23T09:11:11;6.22;;;1.27;;
24713;SDS011;12820;51.580;5.010;2023-03-23T09:16:12;5.85;;;1.45;;
24713;SDS011;12820;51.580;5.010;2023-03-23T09:21:13;9.60;;;1.58;;
24713;SDS011;12820;51.580;5.010;2023-03-23T09:26:14;8.73;;;1.50;;
24713;SDS011;12820;51.580;5.010;2023-03-23T09:31:16;9.48;;;2.15;;
24713;SDS011;12820;51.580;5.010;2023-03-23T09:36:17;8.10;;;1.55;;
24713;SDS011;12820;51.580;5.010;2023-03-23T09:46:58;12.23;;;2.10;;
24713;SDS011;12820;51.580;5.010;2023-03-23T09:52:10;13.45;;;2.65;;
24713;SDS011;12820;51.580;5.010;2023-03-23T09:57:28;9.70;;;1.92;;
24713;SDS011;12820;51.580;5.010;2023-03-23T10:02:38;8.02;;;2.58;;
24713;SDS011;12820;51.580;5.010;2023-03-23T10:07:47;10.20;;;2.22;;
24713;SDS011;12820;51.580;5.010;2023-03-23T10:18:22;8.10;;;2.50;;
24713;SDS011;12820;51.580;5.010;2023-03-23T10:28:55;9.38;;;2.90;;
24713;SDS011;12820;51.580;5.010;2023-03-23T10:34:16;10.25;;;2.75;;
24713;SDS011;12820;51.580;5.010;2023-03-23T10:39:22;7.45;;;2.50;;
24713;SDS011;12820;51.580;5.010;2023-03-23T10:44:27;9.88;;;2.72;;
24713;SDS011;12820;51.580;5.010;2023-03-23T10:49:30;7.18;;;2.13;;
24713;SDS011;12820;51.580;5.010;2023-03-23T10:54:38;9.35;;;2.55;;
24713;SDS011;12820;51.580;5.010;2023-03-23T10:59:47;7.47;;;2.58;;
24713;SDS011;12820;51.580;5.010;2023-03-23T11:05:23;11.57;;;2.85;;
24713;SDS011;12820;51.580;5.010;2023-03-23T11:10:25;8.20;;;1.80;;
24713;SDS011;12820;51.580;5.010;2023-03-23T11:15:32;7.97;;;1.50;;
24713;SDS011;12820;51.580;5.010;2023-03-23T11:20:38;7.38;;;1.90;;
24713;SDS011;12820;51.580;5.010;2023-03-23T11:31:28;6.22;;;1.23;;
24713;SDS011;12820;51.580;5.010;2023-03-23T11:36:36;9.73;;;1.98;;
24713;SDS011;12820;51.580;5.010;2023-03-23T11:41:39;6.75;;;1.60;;
24713;SDS011;12820;51.580;5.010;2023-03-23T11:46:52;9.25;;;1.83;;
24713;SDS011;12820;51.580;5.010;2023-03-23T11:52:01;7.25;;;1.48;;
24713;SDS011;12820;51.580;5.010;2023-03-23T11:57:24;9.00;;;1.63;;
24713;SDS011;12820;51.580;5.010;2023-03-23T12:02:31;3.55;;;1.30;;
24713;SDS011;12820;51.580;5.010;2023-03-23T12:07:44;10.80;;;2.30;;
24713;SDS011;12820;51.580;5.010;2023-03-23T12:13:03;5.78;;;1.65;;
24713;SDS011;12820;51.580;5.010;2023-03-23T12:18:21;9.07;;;2.25;;
24713;SDS011;12820;51.580;5.010;2023-03-23T13:05:54;8.32;;;2.10;;
24713;SDS011;12820;51.580;5.010;2023-03-23T13:11:11;9.60;;;2.30;;
24713;SDS011;12820;51.580;5.010;2023-03-23T13:16:21;10.50;;;2.28;;
24713;SDS011;12820;51.580;5.010;2023-03-23T13:21:32;10.77;;;2.15;;
24713;SDS011;12820;51.580;5.010;2023-03-23T13:26:39;9.98;;;2.25;;
24713;SDS011;12820;51.580;5.010;2023-03-23T13:31:43;10.30;;;1.52;;
24713;SDS011;12820;51.580;5.010;2023-03-23T13:36:55;8.27;;;1.80;;
24713;SDS011;12820;51.580;5.010;2023-03-23T13:42:00;8.25;;;1.90;;
24713;SDS011;12820;51.580;5.010;2023-03-23T13:47:47;8.77;;;1.67;;
24713;SDS011;12820;51.580;5.010;2023-03-23T13:57:54;8.38;;;1.80;;
24713;SDS011;12820;51.580;5.010;2023-03-23T14:13:30;9.15;;;1.70;;
24713;SDS011;12820;51.580;5.010;2023-03-23T14:18:41;9.98;;;2.58;;
24713;SDS011;12820;51.580;5.010;2023-03-23T14:23:48;9.73;;;2.08;;
24713;SDS011;12820;51.580;5.010;2023-03-23T14:28:50;8.57;;;1.90;;
24713;SDS011;12820;51.580;5.010;2023-03-23T14:33:53;6.78;;;1.50;;
24713;SDS011;12820;51.580;5.010;2023-03-23T14:39:06;8.77;;;1.90;;
24713;SDS011;12820;51.580;5.010;2023-03-23T14:44:23;6.35;;;1.85;;
24713;SDS011;12820;51.580;5.010;2023-03-23T14:49:32;9.75;;;2.15;;
24713;SDS011;12820;51.580;5.010;2023-03-23T14:54:38;9.63;;;2.30;;
24713;SDS011;12820;51.580;5.010;2023-03-23T14:59:42;7.15;;;1.88;;
24713;SDS011;12820;51.580;5.010;2023-03-23T15:04:46;8.65;;;1.92;;
24713;SDS011;12820;51.580;5.010;2023-03-23T15:09:50;8.82;;;1.75;;
24713;SDS011;12820;51.580;5.010;2023-03-23T15:14:55;9.75;;;2.28;;
24713;SDS011;12820;51.580;5.010;2023-03-23T15:20:07;8.38;;;1.80;;
24713;SDS011;12820;51.580;5.010;2023-03-23T15:25:30;7.97;;;1.97;;
24713;SDS011;12820;51.580;5.010;2023-03-23T15:30:33;10.93;;;2.42;;
24713;SDS011;12820;51.580;5.010;2023-03-23T15:35:41;7.15;;;1.70;;
24713;SDS011;12820;51.580;5.010;2023-03-23T15:40:48;6.67;;;1.90;;
24713;SDS011;12820;51.580;5.010;2023-03-23T15:45:55;5.82;;;1.60;;
24713;SDS011;12820;51.580;5.010;2023-03-23T15:51:04;6.00;;;1.60;;
24713;SDS011;12820;51.580;5.010;2023-03-23T15:56:07;9.52;;;2.05;;
24713;SDS011;12820;51.580;5.010;2023-03-23T16:01:20;11.05;;;2.22;;
24713;SDS011;12820;51.580;5.010;2023-03-23T16:06:26;10.27;;;2.00;;
24713;SDS011;12820;51.580;5.010;2023-03-23T16:11:31;12.90;;;1.90;;
24713;SDS011;12820;51.580;5.010;2023-03-23T16:16:39;9.18;;;1.80;;
24713;SDS011;12820;51.580;5.010;2023-03-23T16:21:45;7.85;;;2.42;;
24713;SDS011;12820;51.580;5.010;2023-03-23T16:26:47;9.88;;;2.13;;
24713;SDS011;12820;51.580;5.010;2023-03-23T16:31:49;6.88;;;1.77;;
24713;SDS011;12820;51.580;5.010;2023-03-23T16:36:52;7.80;;;1.92;;
24713;SDS011;12820;51.580;5.010;2023-03-23T16:41:55;8.75;;;1.85;;
24713;SDS011;12820;51.580;5.010;2023-03-23T16:46:57;9.02;;;2.25;;
24713;SDS011;12820;51.580;5.010;2023-03-23T16:51:59;12.45;;;2.05;;
24713;SDS011;12820;51.580;5.010;2023-03-23T16:57:02;8.98;;;2.03;;
24713;SDS011;12820;51.580;5.010;2023-03-23T17:02:04;10.30;;;1.85;;
24713;SDS011;12820;51.580;5.010;2023-03-23T17:07:06;9.82;;;2.40;;
24713;SDS011;12820;51.580;5.010;2023-03-23T17:12:08;8.05;;;2.00;;
24713;SDS011;12820;51.580;5.010;2023-03-23T17:17:11;7.32;;;2.25;;
24713;SDS011;12820;51.580;5.010;2023-03-23T17:22:13;15.45;;;3.10;;
24713;SDS011;12820;51.580;5.010;2023-03-23T17:27:16;11.98;;;2.60;;
24713;SDS011;12820;51.580;5.010;2023-03-23T17:32:19;8.30;;;2.38;;
24713;SDS011;12820;51.580;5.010;2023-03-23T17:37:22;10.25;;;2.35;;
24713;SDS011;12820;51.580;5.010;2023-03-23T17:42:24;11.40;;;2.65;;
24713;SDS011;12820;51.580;5.010;2023-03-23T17:47:26;13.07;;;2.67;;
24713;SDS011;12820;51.580;5.010;2023-03-23T17:52:28;14.93;;;3.25;;
24713;SDS011;12820;51.580;5.010;2023-03-23T17:57:31;11.90;;;3.20;;
24713;SDS011;12820;51.580;5.010;2023-03-23T18:02:33;10.23;;;3.00;;
24713;SDS011;12820;51.580;5.010;2023-03-23T18:07:36;17.70;;;3.30;;
24713;SDS011;12820;51.580;5.010;2023-03-23T18:12:39;9.70;;;3.05;;
24713;SDS011;12820;51.580;5.010;2023-03-23T18:17:42;16.45;;;3.55;;
24713;SDS011;12820;51.580;5.010;2023-03-23T18:22:48;12.70;;;2.65;;
24713;SDS011;12820;51.580;5.010;2023-03-23T18:27:50;11.70;;;3.20;;
24713;SDS011;12820;51.580;5.010;2023-03-23T18:32:53;14.00;;;3.45;;
24713;SDS011;12820;51.580;5.010;2023-03-23T18:37:55;13.98;;;3.63;;
24713;SDS011;12820;51.580;5.010;2023-03-23T18:42:57;12.98;;;3.58;;
24713;SDS011;12820;51.580;5.010;2023-03-23T18:47:59;10.32;;;3.13;;
24713;SDS011;12820;51.580;5.010;2023-03-23T18:53:02;15.63;;;3.28;;
24713;SDS011;12820;51.580;5.010;2023-03-23T18:58:04;11.45;;;3.10;;
24713;SDS011;12820;51.580;5.010;2023-03-23T19:03:07;11.55;;;3.58;;
24713;SDS011;12820;51.580;5.010;2023-03-23T19:08:10;12.07;;;3.15;;
24713;SDS011;12820;51.580;5.010;2023-03-23T19:13:12;10.93;;;3.13;;
24713;SDS011;12820;51.580;5.010;2023-03-23T19:18:15;15.07;;;3.45;;
24713;SDS011;12820;51.580;5.010;2023-03-23T19:23:18;9.35;;;3.03;;
24713;SDS011;12820;51.580;5.010;2023-03-23T19:28:20;8.88;;;3.03;;
24713;SDS011;12820;51.580;5.010;2023-03-23T19:33:43;11.73;;;3.35;;
24713;SDS011;12820;51.580;5.010;2023-03-23T19:38:48;16.15;;;4.43;;
24713;SDS011;12820;51.580;5.010;2023-03-23T19:43:51;16.83;;;6.85;;
24713;SDS011;12820;51.580;5.010;2023-03-23T19:48:53;19.25;;;8.25;;
24713;SDS011;12820;51.580;5.010;2023-03-23T19:53:56;10.73;;;4.32;;
24713;SDS011;12820;51.580;5.010;2023-03-23T19:58:59;12.45;;;3.28;;
24713;SDS011;12820;51.580;5.010;2023-03-23T20:04:02;15.60;;;3.80;;
24713;SDS011;12820;51.580;5.010;2023-03-23T20:09:05;14.43;;;3.65;;
24713;SDS011;12820;51.580;5.010;2023-03-23T20:14:08;12.15;;;3.75;;
24713;SDS011;12820;51.580;5.010;2023-03-23T20:19:10;15.85;;;4.00;;
24713;SDS011;12820;51.580;5.010;2023-03-23T20:24:12;18.75;;;4.20;;
24713;SDS011;12820;51.580;5.010;2023-03-23T20:29:14;14.73;;;4.78;;
24713;SDS011;12820;51.580;5.010;2023-03-23T20:34:17;13.27;;;3.90;;
24713;SDS011;12820;51.580;5.010;2023-03-23T20:39:30;15.45;;;6.00;;
24713;SDS011;12820;51.580;5.010;2023-03-23T20:44:33;16.92;;;5.70;;
24713;SDS011;12820;51.580;5.010;2023-03-23T20:49:36;15.05;;;4.70;;
24713;SDS011;12820;51.580;5.010;2023-03-23T20:54:39;13.40;;;3.22;;
24713;SDS011;12820;51.580;5.010;2023-03-23T20:59:43;13.23;;;3.45;;
24713;SDS011;12820;51.580;5.010;2023-03-23T21:04:45;11.55;;;3.30;;
24713;SDS011;12820;51.580;5.010;2023-03-23T21:09:49;10.93;;;3.38;;
24713;SDS011;12820;51.580;5.010;2023-03-23T21:14:51;9.95;;;3.70;;
24713;SDS011;12820;51.580;5.010;2023-03-23T21:19:54;12.73;;;3.20;;
24713;SDS011;12820;51.580;5.010;2023-03-23T21:24:56;9.30;;;3.53;;
24713;SDS011;12820;51.580;5.010;2023-03-23T21:30:00;11.35;;;3.35;;
24713;SDS011;12820;51.580;5.010;2023-03-23T21:35:02;12.45;;;3.35;;
24713;SDS011;12820;51.580;5.010;2023-03-23T21:40:05;6.25;;;2.85;;
24713;SDS011;12820;51.580;5.010;2023-03-23T21:45:14;10.90;;;2.70;;
24713;SDS011;12820;51.580;5.010;2023-03-23T21:50:23;10.63;;;3.13;;
24713;SDS011;12820;51.580;5.010;2023-03-23T21:55:25;9.18;;;2.92;;
24713;SDS011;12820;51.580;5.010;2023-03-23T22:00:30;7.72;;;2.72;;
24713;SDS011;12820;51.580;5.010;2023-03-23T22:05:33;12.13;;;3.53;;
24713;SDS011;12820;51.580;5.010;2023-03-23T22:10:38;11.10;;;3.00;;
24713;SDS011;12820;51.580;5.010;2023-03-23T22:15:45;14.68;;;2.80;;
24713;SDS011;12820;51.580;5.010;2023-03-23T22:20:48;10.02;;;2.67;;
24713;SDS011;12820;51.580;5.010;2023-03-23T22:25:50;9.65;;;2.70;;
24713;SDS011;12820;51.580;5.010;2023-03-23T22:30:53;11.48;;;3.40;;
24713;SDS011;12820;51.580;5.010;2023-03-23T22:35:56;9.93;;;2.72;;
24713;SDS011;12820;51.580;5.010;2023-03-23T22:40:59;11.57;;;3.00;;
24713;SDS011;12820;51.580;5.010;2023-03-23T22:46:03;8.88;;;2.90;;
24713;SDS011;12820;51.580;5.010;2023-03-23T22:51:06;9.20;;;3.05;;
24713;SDS011;12820;51.580;5.010;2023-03-23T22:56:10;9.98;;;3.97;;
24713;SDS011;12820;51.580;5.010;2023-03-23T23:01:13;11.27;;;3.28;;
24713;SDS011;12820;51.580;5.010;2023-03-23T23:06:18;11.15;;;2.97;;
24713;SDS011;12820;51.580;5.010;2023-03-23T23:11:22;11.95;;;3.20;;
24713;SDS011;12820;51.580;5.010;2023-03-23T23:16:25;10.05;;;3.00;;
24713;SDS011;12820;51.580;5.010;2023-03-23T23:21:28;6.85;;;2.85;;
24713;SDS011;12820;51.580;5.010;2023-03-23T23:26:30;9.23;;;2.63;;
24713;SDS011;12820;51.580;5.010;2023-03-23T23:31:32;7.13;;;2.88;;
24713;SDS011;12820;51.580;5.010;2023-03-23T23:36:35;10.40;;;3.00;;
24713;SDS011;12820;51.580;5.010;2023-03-23T23:41:38;7.20;;;2.90;;
24713;SDS011;12820;51.580;5.010;2023-03-23T23:46:40;8.02;;;3.00;;
24713;SDS011;12820;51.580;5.010;2023-03-23T23:51:42;8.27;;;3.28;;
24713;SDS011;12820;51.580;5.010;2023-03-23T23:56:45;9.00;;;3.10;;
